Time,TemperatureF,DewpointF,PressureIn,WindDirection,WindDirectionDegrees,WindSpeedMPH,WindSpeedGustMPH,Humidity,HourlyPrecipIn,Conditions,Clouds,dailyrainin,SolarRadiationWatts/m^2,SoftwareType,DateUTC
2013-01-11 00:00:00,38.2,28.9,30.26,ENE,73,0.0,1.0,69,0.00,,,0.00,0,HR-IXPWINDi_r2_v1.2.,2013-01-11 05:00:00,
2013-01-11 00:05:00,38.2,28.9,30.24,East,83,0.0,1.0,69,0.00,,,0.00,0,HR-IXPWINDi_r2_v1.2.,2013-01-11 05:05:00,
2013-01-11 00:11:00,38.0,28.7,30.24,East,83,0.0,1.0,69,0.00,,,0.00,0,HR-IXPWINDi_r2_v1.2.,2013-01-11 05:11:00,
2013-01-11 00:16:00,38.0,28.7,30.24,East,83,0.0,1.0,69,0.00,,,0.00,0,HR-IXPWINDi_r2_v1.2.,2013-01-11 05:16:00,
2013-01-11 00:21:00,38.0,29.1,30.24,East,83,0.0,1.0,70,0.00,,,0.00,0,HR-IXPWINDi_r2_v1.2.,2013-01-11 05:21:00,
2013-01-11 00:26:00,38.0,29.1,30.24,East,83,0.0,1.0,70,0.00,,,0.00,0,HR-IXPWINDi_r2_v1.2.,2013-01-11 05:26:00,
2013-01-11 00:31:00,37.9,29.7,30.24,East,83,0.0,1.0,72,0.00,,,0.00,0,HR-IXPWINDi_r2_v1.2.,2013-01-11 05:31:00,
2013-01-11 00:37:00,37.6,29.4,30.24,East,83,0.0,1.0,72,0.00,,,0.00,0,HR-IXPWINDi_r2_v1.2.,2013-01-11 05:37:00,
2013-01-11 00:42:00,37.6,29.4,30.24,East,83,0.0,0.0,72,0.00,,,0.00,0,HR-IXPWINDi_r2_v1.2.,2013-01-11 05:42:00,
2013-01-11 00:47:00,37.5,29.9,30.24,East,83,0.0,0.0,74,0.00,,,0.00,0,HR-IXPWINDi_r2_v1.2.,2013-01-11 05:47:00,
2013-01-11 00:52:00,37.3,29.8,30.23,East,83,0.0,0.0,74,0.00,,,0.00,0,HR-IXPWINDi_r2_v1.2.,2013-01-11 05:52:00,
2013-01-11 00:57:00,37.2,30.0,30.23,East,83,0.0,0.0,75,0.00,,,0.00,0,HR-IXPWINDi_r2_v1.2.,2013-01-11 05:57:00,
2013-01-11 01:02:00,37.0,29.8,30.23,East,83,0.0,0.0,75,0.00,,,0.00,0,HR-IXPWINDi_r2_v1.2.,2013-01-11 06:02:00,
2013-01-11 01:08:00,36.9,29.7,30.22,East,83,0.0,0.0,75,0.00,,,0.00,0,HR-IXPWINDi_r2_v1.2.,2013-01-11 06:08:00,
2013-01-11 01:13:00,36.9,29.7,30.22,East,83,0.0,1.0,75,0.00,,,0.00,0,HR-IXPWINDi_r2_v1.2.,2013-01-11 06:13:00,
2013-01-11 01:18:00,36.8,29.9,30.22,East,83,0.0,1.0,76,0.00,,,0.00,0,HR-IXPWINDi_r2_v1.2.,2013-01-11 06:18:00,
2013-01-11 01:23:00,36.6,29.7,30.21,East,83,0.0,0.0,76,0.00,,,0.00,0,HR-IXPWINDi_r2_v1.2.,2013-01-11 06:23:00,
2013-01-11 01:29:00,36.6,29.7,30.21,East,83,0.0,0.0,76,0.00,,,0.00,0,HR-IXPWINDi_r2_v1.2.,2013-01-11 06:29:00,
2013-01-11 01:34:00,36.6,29.7,30.21,East,83,0.0,1.0,76,0.00,,,0.00,0,HR-IXPWINDi_r2_v1.2.,2013-01-11 06:34:00,
2013-01-11 01:39:00,36.5,30.0,30.21,East,83,0.0,2.0,77,0.00,,,0.00,0,HR-IXPWINDi_r2_v1.2.,2013-01-11 06:39:00,
2013-01-11 01:44:00,36.5,30.0,30.21,East,83,0.0,2.0,77,0.00,,,0.00,0,HR-IXPWINDi_r2_v1.2.,2013-01-11 06:44:00,
2013-01-11 01:49:00,36.5,30.3,30.21,East,83,0.0,0.0,78,0.00,,,0.00,0,HR-IXPWINDi_r2_v1.2.,2013-01-11 06:49:00,
2013-01-11 01:55:00,36.5,30.3,30.21,East,83,0.0,1.0,78,0.00,,,0.00,0,HR-IXPWINDi_r2_v1.2.,2013-01-11 06:55:00,
2013-01-11 02:00:00,36.5,30.3,30.21,East,83,0.0,1.0,78,0.00,,,0.00,0,HR-IXPWINDi_r2_v1.2.,2013-01-11 07:00:00,
2013-01-11 02:05:00,36.5,30.6,30.20,East,83,0.0,1.0,79,0.00,,,0.00,0,HR-IXPWINDi_r2_v1.2.,2013-01-11 07:05:00,
2013-01-11 02:10:00,36.6,30.7,30.20,ENE,71,0.0,3.0,79,0.00,,,0.00,0,HR-IXPWINDi_r2_v1.2.,2013-01-11 07:10:00,
2013-01-11 02:15:00,36.9,30.7,30.20,ENE,73,0.0,3.0,78,0.00,,,0.00,0,HR-IXPWINDi_r2_v1.2.,2013-01-11 07:15:00,
2013-01-11 02:20:00,37.0,30.8,30.20,SSE,164,0.0,4.0,78,0.00,,,0.00,0,HR-IXPWINDi_r2_v1.2.,2013-01-11 07:20:00,
2013-01-11 02:26:00,37.3,31.0,30.20,ENE,75,0.0,4.0,78,0.00,,,0.00,0,HR-IXPWINDi_r2_v1.2.,2013-01-11 07:26:00,
2013-01-11 02:31:00,37.8,31.2,30.20,ESE,105,0.0,4.0,77,0.00,,,0.00,0,HR-IXPWINDi_r2_v1.2.,2013-01-11 07:31:00,
2013-01-11 02:36:00,37.9,31.3,30.20,East,87,4.0,4.0,77,0.00,,,0.00,0,HR-IXPWINDi_r2_v1.2.,2013-01-11 07:36:00,
2013-01-11 02:41:00,38.0,31.1,30.20,East,82,0.0,5.0,76,0.00,,,0.00,0,HR-IXPWINDi_r2_v1.2.,2013-01-11 07:41:00,
2013-01-11 02:46:00,38.0,31.1,30.20,East,82,0.0,5.0,76,0.00,,,0.00,0,HR-IXPWINDi_r2_v1.2.,2013-01-11 07:46:00,
2013-01-11 02:52:00,38.2,30.9,30.20,East,82,0.0,1.0,75,0.00,,,0.00,0,HR-IXPWINDi_r2_v1.2.,2013-01-11 07:52:00,
2013-01-11 02:57:00,38.3,30.7,30.20,East,82,0.0,0.0,74,0.00,,,0.00,0,HR-IXPWINDi_r2_v1.2.,2013-01-11 07:57:00,
2013-01-11 03:02:00,38.3,30.7,30.20,East,82,0.0,0.0,74,0.00,,,0.00,0,HR-IXPWINDi_r2_v1.2.,2013-01-11 08:02:00,
2013-01-11 03:07:00,38.3,30.7,30.20,East,82,0.0,0.0,74,0.00,,,0.00,0,HR-IXPWINDi_r2_v1.2.,2013-01-11 08:07:00,
2013-01-11 03:12:00,38.3,31.0,30.20,East,82,0.0,0.0,75,0.00,,,0.00,0,HR-IXPWINDi_r2_v1.2.,2013-01-11 08:12:00,
2013-01-11 03:18:00,38.2,30.9,30.20,East,82,0.0,0.0,75,0.00,,,0.00,0,HR-IXPWINDi_r2_v1.2.,2013-01-11 08:18:00,
2013-01-11 03:23:00,38.0,30.8,30.20,East,82,0.0,0.0,75,0.00,,,0.00,0,HR-IXPWINDi_r2_v1.2.,2013-01-11 08:23:00,
2013-01-11 03:28:00,38.0,31.1,30.20,East,82,0.0,0.0,76,0.00,,,0.00,0,HR-IXPWINDi_r2_v1.2.,2013-01-11 08:28:00,
2013-01-11 03:33:00,37.9,31.0,30.20,East,82,0.0,0.0,76,0.00,,,0.00,0,HR-IXPWINDi_r2_v1.2.,2013-01-11 08:33:00,
2013-01-11 03:38:00,37.8,31.2,30.19,East,82,0.0,0.0,77,0.00,,,0.00,0,HR-IXPWINDi_r2_v1.2.,2013-01-11 08:38:00,
2013-01-11 03:43:00,37.6,31.0,30.19,East,82,0.0,0.0,77,0.00,,,0.00,0,HR-IXPWINDi_r2_v1.2.,2013-01-11 08:43:00,
2013-01-11 03:48:00,37.5,30.9,30.19,East,82,0.0,0.0,77,0.00,,,0.00,0,HR-IXPWINDi_r2_v1.2.,2013-01-11 08:48:00,
2013-01-11 03:54:00,37.3,31.0,30.18,East,82,0.0,0.0,78,0.00,,,0.00,0,HR-IXPWINDi_r2_v1.2.,2013-01-11 08:54:00,
2013-01-11 03:59:00,37.3,31.0,30.18,East,82,0.0,1.0,78,0.00,,,0.00,0,HR-IXPWINDi_r2_v1.2.,2013-01-11 08:59:00,
2013-01-11 04:04:00,37.3,31.4,30.18,East,82,0.0,1.0,79,0.00,,,0.00,0,HR-IXPWINDi_r2_v1.2.,2013-01-11 09:04:00,
2013-01-11 04:09:00,37.3,31.4,30.17,East,82,0.0,1.0,79,0.00,,,0.00,0,HR-IXPWINDi_r2_v1.2.,2013-01-11 09:09:00,
2013-01-11 04:14:00,37.2,31.6,30.17,East,82,0.0,0.0,80,0.00,,,0.00,0,HR-IXPWINDi_r2_v1.2.,2013-01-11 09:14:00,
2013-01-11 04:20:00,37.2,31.6,30.16,East,82,0.0,0.0,80,0.00,,,0.00,0,HR-IXPWINDi_r2_v1.2.,2013-01-11 09:20:00,
2013-01-11 04:25:00,37.0,31.4,30.16,East,82,0.0,0.0,80,0.00,,,0.00,0,HR-IXPWINDi_r2_v1.2.,2013-01-11 09:25:00,
2013-01-11 04:30:00,37.0,31.4,30.16,East,82,0.0,1.0,80,0.00,,,0.00,0,HR-IXPWINDi_r2_v1.2.,2013-01-11 09:30:00,
2013-01-11 04:35:00,36.9,31.3,30.15,East,82,1.0,1.0,80,0.00,,,0.00,0,HR-IXPWINDi_r2_v1.2.,2013-01-11 09:35:00,
2013-01-11 04:41:00,36.9,31.6,30.15,East,82,0.0,1.0,81,0.00,,,0.00,0,HR-IXPWINDi_r2_v1.2.,2013-01-11 09:41:00,
2013-01-11 04:46:00,36.8,31.5,30.15,East,82,0.0,1.0,81,0.00,,,0.00,0,HR-IXPWINDi_r2_v1.2.,2013-01-11 09:46:00,
2013-01-11 04:51:00,36.8,31.8,30.14,East,82,0.0,1.0,82,0.00,,,0.00,0,HR-IXPWINDi_r2_v1.2.,2013-01-11 09:51:00,
2013-01-11 04:56:00,36.8,31.8,30.14,East,82,0.0,2.0,82,0.00,,,0.00,0,HR-IXPWINDi_r2_v1.2.,2013-01-11 09:56:00,
2013-01-11 05:01:00,36.8,31.8,30.14,East,90,0.0,2.0,82,0.00,,,0.00,0,HR-IXPWINDi_r2_v1.2.,2013-01-11 10:01:00,
2013-01-11 05:06:00,37.0,32.0,30.13,ENE,76,0.0,3.0,82,0.00,,,0.00,0,HR-IXPWINDi_r2_v1.2.,2013-01-11 10:06:00,
2013-01-11 05:12:00,37.8,32.8,30.13,ESE,119,1.0,4.0,82,0.00,,,0.00,0,HR-IXPWINDi_r2_v1.2.,2013-01-11 10:12:00,
2013-01-11 05:17:00,38.8,33.4,30.13,East,84,4.0,5.0,81,0.00,,,0.00,0,HR-IXPWINDi_r2_v1.2.,2013-01-11 10:17:00,
2013-01-11 05:22:00,39.5,33.5,30.13,ESE,108,2.0,6.0,79,0.00,,,0.00,0,HR-IXPWINDi_r2_v1.2.,2013-01-11 10:22:00,
2013-01-11 05:27:00,40.3,33.3,30.13,SE,131,0.0,6.0,76,0.00,,,0.00,0,HR-IXPWINDi_r2_v1.2.,2013-01-11 10:27:00,
2013-01-11 05:32:00,40.6,33.3,30.13,ENE,73,0.0,6.0,75,0.00,,,0.00,0,HR-IXPWINDi_r2_v1.2.,2013-01-11 10:32:00,
2013-01-11 05:37:00,41.1,33.4,30.13,East,94,0.0,4.0,74,0.00,,,0.00,0,HR-IXPWINDi_r2_v1.2.,2013-01-11 10:37:00,
2013-01-11 05:42:00,41.3,33.3,30.13,East,92,0.0,4.0,73,0.00,,,0.00,0,HR-IXPWINDi_r2_v1.2.,2013-01-11 10:42:00,
2013-01-11 05:48:00,41.5,33.1,30.13,SE,132,0.0,3.0,72,0.00,,,0.00,0,HR-IXPWINDi_r2_v1.2.,2013-01-11 10:48:00,
2013-01-11 05:53:00,41.6,33.2,30.13,SE,132,0.0,2.0,72,0.00,,,0.00,0,HR-IXPWINDi_r2_v1.2.,2013-01-11 10:53:00,
2013-01-11 05:58:00,41.6,33.2,30.13,East,99,0.0,1.0,72,0.00,,,0.00,0,HR-IXPWINDi_r2_v1.2.,2013-01-11 10:58:00,
2013-01-11 06:03:00,41.5,33.1,30.13,East,98,1.0,3.0,72,0.00,,,0.00,0,HR-IXPWINDi_r2_v1.2.,2013-01-11 11:03:00,
2013-01-11 06:09:00,41.5,33.1,30.12,ESE,113,1.0,4.0,72,0.00,,,0.00,0,HR-IXPWINDi_r2_v1.2.,2013-01-11 11:09:00,
2013-01-11 06:14:00,41.3,32.9,30.12,ESE,117,0.0,4.0,72,0.00,,,0.00,0,HR-IXPWINDi_r2_v1.2.,2013-01-11 11:14:00,
2013-01-11 06:19:00,41.2,33.2,30.12,ESE,117,0.0,4.0,73,0.00,,,0.00,0,HR-IXPWINDi_r2_v1.2.,2013-01-11 11:19:00,
2013-01-11 06:24:00,41.1,33.4,30.13,ESE,115,1.0,4.0,74,0.00,,,0.00,0,HR-IXPWINDi_r2_v1.2.,2013-01-11 11:24:00,
2013-01-11 06:29:00,40.9,33.2,30.13,SE,133,0.0,2.0,74,0.00,,,0.00,0,HR-IXPWINDi_r2_v1.2.,2013-01-11 11:29:00,
2013-01-11 06:34:00,40.9,33.2,30.13,East,81,2.0,4.0,74,0.00,,,0.00,0,HR-IXPWINDi_r2_v1.2.,2013-01-11 11:34:00,
2013-01-11 06:40:00,40.9,33.6,30.13,SE,130,1.0,5.0,75,0.00,,,0.00,0,HR-IXPWINDi_r2_v1.2.,2013-01-11 11:40:00,
2013-01-11 06:45:00,41.1,34.1,30.13,East,87,0.0,5.0,76,0.00,,,0.01,0,HR-IXPWINDi_r2_v1.2.,2013-01-11 11:45:00,
2013-01-11 06:50:00,41.3,34.6,30.12,East,87,0.0,6.0,77,0.00,,,0.01,0,HR-IXPWINDi_r2_v1.2.,2013-01-11 11:50:00,
2013-01-11 06:55:00,41.6,35.5,30.12,NE,55,1.0,6.0,79,0.00,,,0.01,0,HR-IXPWINDi_r2_v1.2.,2013-01-11 11:55:00,
2013-01-11 07:01:00,41.9,36.1,30.12,East,96,1.0,3.0,80,0.00,,,0.01,0,HR-IXPWINDi_r2_v1.2.,2013-01-11 12:01:00,
2013-01-11 07:06:00,42.1,36.3,30.11,East,98,2.0,3.0,80,0.00,,,0.01,0,HR-IXPWINDi_r2_v1.2.,2013-01-11 12:06:00,
2013-01-11 07:11:00,42.3,36.8,30.11,ENE,72,0.0,4.0,81,0.00,,,0.01,0,HR-IXPWINDi_r2_v1.2.,2013-01-11 12:11:00,
2013-01-11 07:16:00,42.3,36.8,30.11,NE,54,1.0,4.0,81,0.00,,,0.01,0,HR-IXPWINDi_r2_v1.2.,2013-01-11 12:16:00,
2013-01-11 07:21:00,42.3,36.8,30.11,ESE,107,2.0,4.0,81,0.00,,,0.01,0,HR-IXPWINDi_r2_v1.2.,2013-01-11 12:21:00,
2013-01-11 07:26:00,42.5,37.0,30.11,East,95,0.0,5.0,81,0.00,,,0.01,0,HR-IXPWINDi_r2_v1.2.,2013-01-11 12:26:00,
2013-01-11 07:31:00,42.6,37.1,30.11,ESE,120,3.0,6.0,81,0.00,,,0.01,0,HR-IXPWINDi_r2_v1.2.,2013-01-11 12:31:00,
2013-01-11 07:36:00,42.8,37.3,30.10,ENE,68,0.0,6.0,81,0.00,,,0.01,0,HR-IXPWINDi_r2_v1.2.,2013-01-11 12:36:00,
2013-01-11 07:41:00,42.8,37.3,30.10,ESE,103,0.0,6.0,81,0.00,,,0.01,0,HR-IXPWINDi_r2_v1.2.,2013-01-11 12:41:00,
2013-01-11 07:46:00,42.8,37.3,30.10,ENE,61,0.0,4.0,81,0.00,,,0.01,0,HR-IXPWINDi_r2_v1.2.,2013-01-11 12:46:00,
2013-01-11 07:52:00,42.8,37.3,30.08,SE,130,0.0,3.0,81,0.00,,,0.01,0,HR-IXPWINDi_r2_v1.2.,2013-01-11 12:52:00,
2013-01-11 07:57:00,42.9,37.4,30.08,East,82,0.0,3.0,81,0.00,,,0.01,0,HR-IXPWINDi_r2_v1.2.,2013-01-11 12:57:00,
2013-01-11 08:03:00,42.9,37.7,30.08,East,95,0.0,4.0,82,0.00,,,0.01,5,HR-IXPWINDi_r2_v1.2.,2013-01-11 13:03:00,
2013-01-11 08:08:00,43.1,37.9,30.08,East,81,4.0,6.0,82,0.00,,,0.01,5,HR-IXPWINDi_r2_v1.2.,2013-01-11 13:08:00,
2013-01-11 08:13:00,43.1,37.9,30.08,East,89,0.0,6.0,82,0.00,,,0.01,7,HR-IXPWINDi_r2_v1.2.,2013-01-11 13:13:00,
2013-01-11 08:18:00,43.2,38.0,30.08,SE,132,0.0,5.0,82,0.00,,,0.01,12,HR-IXPWINDi_r2_v1.2.,2013-01-11 13:18:00,
2013-01-11 08:24:00,43.3,38.1,30.07,East,101,3.0,5.0,82,0.00,,,0.01,21,HR-IXPWINDi_r2_v1.2.,2013-01-11 13:24:00,
2013-01-11 08:30:00,43.6,38.4,30.07,East,94,0.0,7.0,82,0.00,,,0.01,21,HR-IXPWINDi_r2_v1.2.,2013-01-11 13:30:00,
2013-01-11 08:35:00,43.9,38.7,30.06,ENE,68,0.0,7.0,82,0.00,,,0.01,28,HR-IXPWINDi_r2_v1.2.,2013-01-11 13:35:00,
2013-01-11 08:40:00,44.1,38.9,30.06,East,83,2.0,4.0,82,0.00,,,0.01,33,HR-IXPWINDi_r2_v1.2.,2013-01-11 13:40:00,
2013-01-11 08:45:00,44.2,39.0,30.06,ESE,110,1.0,5.0,82,0.00,,,0.01,30,HR-IXPWINDi_r2_v1.2.,2013-01-11 13:45:00,
2013-01-11 08:51:00,44.3,39.1,30.06,SE,129,2.0,5.0,82,0.00,,,0.01,26,HR-IXPWINDi_r2_v1.2.,2013-01-11 13:51:00,
2013-01-11 08:56:00,44.5,39.3,30.06,SE,139,0.0,5.0,82,0.00,,,0.01,26,HR-IXPWINDi_r2_v1.2.,2013-01-11 13:56:00,
2013-01-11 09:02:00,44.6,39.7,30.06,ENE,65,0.0,5.0,83,0.00,,,0.01,18,HR-IXPWINDi_r2_v1.2.,2013-01-11 14:02:00,
2013-01-11 09:07:00,44.6,39.7,30.05,East,79,2.0,5.0,83,0.00,,,0.01,39,HR-IXPWINDi_r2_v1.2.,2013-01-11 14:07:00,
2013-01-11 09:12:00,44.8,39.9,30.05,ENE,66,0.0,4.0,83,0.00,,,0.01,56,HR-IXPWINDi_r2_v1.2.,2013-01-11 14:12:00,
2013-01-11 09:17:00,44.8,39.9,30.05,ENE,66,1.0,3.0,83,0.00,,,0.01,74,HR-IXPWINDi_r2_v1.2.,2013-01-11 14:17:00,
2013-01-11 09:22:00,44.9,40.0,30.04,ENE,61,0.0,2.0,83,0.00,,,0.01,83,HR-IXPWINDi_r2_v1.2.,2013-01-11 14:22:00,
2013-01-11 09:28:00,45.2,40.3,30.04,East,81,0.0,2.0,83,0.00,,,0.01,84,HR-IXPWINDi_r2_v1.2.,2013-01-11 14:28:00,
2013-01-11 09:33:00,45.4,40.8,30.04,East,81,0.0,2.0,84,0.00,,,0.01,79,HR-IXPWINDi_r2_v1.2.,2013-01-11 14:33:00,
2013-01-11 09:38:00,45.7,41.1,30.03,East,81,1.0,2.0,84,0.00,,,0.01,109,HR-IXPWINDi_r2_v1.2.,2013-01-11 14:38:00,
2013-01-11 09:43:00,45.8,40.9,30.03,ENE,70,0.0,2.0,83,0.00,,,0.01,88,HR-IXPWINDi_r2_v1.2.,2013-01-11 14:43:00,
2013-01-11 09:48:00,46.1,41.2,30.03,ENE,63,0.0,3.0,83,0.00,,,0.01,91,HR-IXPWINDi_r2_v1.2.,2013-01-11 14:48:00,
2013-01-11 09:53:00,46.2,41.3,30.03,East,82,0.0,5.0,83,0.00,,,0.01,134,HR-IXPWINDi_r2_v1.2.,2013-01-11 14:53:00,
2013-01-11 09:59:00,46.5,41.6,30.03,ENE,73,0.0,5.0,83,0.00,,,0.01,127,HR-IXPWINDi_r2_v1.2.,2013-01-11 14:59:00,
2013-01-11 10:04:00,46.8,41.9,30.03,East,80,0.0,1.0,83,0.00,,,0.01,95,HR-IXPWINDi_r2_v1.2.,2013-01-11 15:04:00,
2013-01-11 10:09:00,47.0,41.7,30.02,East,87,0.0,2.0,82,0.00,,,0.01,79,HR-IXPWINDi_r2_v1.2.,2013-01-11 15:09:00,
2013-01-11 10:14:00,47.1,41.8,30.02,ESE,106,0.0,2.0,82,0.00,,,0.01,91,HR-IXPWINDi_r2_v1.2.,2013-01-11 15:14:00,
2013-01-11 10:21:00,47.3,41.7,30.01,ESE,106,0.0,2.0,81,0.00,,,0.01,60,HR-IXPWINDi_r2_v1.2.,2013-01-11 15:21:00,
2013-01-11 10:26:00,47.4,41.8,30.01,ESE,106,0.0,1.0,81,0.00,,,0.01,65,HR-IXPWINDi_r2_v1.2.,2013-01-11 15:26:00,
2013-01-11 10:31:00,47.6,42.0,30.01,ESE,106,0.0,1.0,81,0.00,,,0.01,35,HR-IXPWINDi_r2_v1.2.,2013-01-11 15:31:00,
2013-01-11 10:36:00,47.7,42.4,30.01,ESE,106,0.0,1.0,82,0.00,,,0.02,33,HR-IXPWINDi_r2_v1.2.,2013-01-11 15:36:00,
2013-01-11 10:42:00,47.7,42.7,30.01,ESE,106,0.0,1.0,83,0.00,,,0.02,42,HR-IXPWINDi_r2_v1.2.,2013-01-11 15:42:00,
2013-01-11 10:47:00,47.7,43.0,30.01,ESE,104,0.0,1.0,84,0.05,,,0.03,63,HR-IXPWINDi_r2_v1.2.,2013-01-11 15:47:00,
2013-01-11 10:52:00,47.7,43.0,29.99,East,93,0.0,1.0,84,0.05,,,0.03,77,HR-IXPWINDi_r2_v1.2.,2013-01-11 15:52:00,
2013-01-11 10:57:00,47.6,43.3,29.99,ENE,58,0.0,2.0,85,0.05,,,0.03,77,HR-IXPWINDi_r2_v1.2.,2013-01-11 15:57:00,
2013-01-11 11:02:00,47.4,43.4,29.99,ENE,67,0.0,3.0,86,0.00,,,0.03,47,HR-IXPWINDi_r2_v1.2.,2013-01-11 16:02:00,
2013-01-11 11:07:00,47.4,43.7,29.98,ENE,61,0.0,3.0,87,0.00,,,0.03,33,HR-IXPWINDi_r2_v1.2.,2013-01-11 16:07:00,
2013-01-11 11:13:00,47.3,43.6,29.98,ENE,60,0.0,3.0,87,0.00,,,0.03,21,HR-IXPWINDi_r2_v1.2.,2013-01-11 16:13:00,
2013-01-11 11:18:00,47.3,43.9,29.98,NE,56,0.0,1.0,88,0.00,,,0.03,33,HR-IXPWINDi_r2_v1.2.,2013-01-11 16:18:00,
2013-01-11 11:23:00,47.3,43.9,29.96,NE,56,0.0,1.0,88,0.00,,,0.03,81,HR-IXPWINDi_r2_v1.2.,2013-01-11 16:23:00,
2013-01-11 11:28:00,47.3,44.2,29.96,NE,56,0.0,0.0,89,0.00,,,0.03,70,HR-IXPWINDi_r2_v1.2.,2013-01-11 16:28:00,
2013-01-11 11:33:00,47.3,44.2,29.96,ENE,63,0.0,1.0,89,0.00,,,0.03,54,HR-IXPWINDi_r2_v1.2.,2013-01-11 16:33:00,
2013-01-11 11:39:00,47.4,44.3,29.95,ESE,104,0.0,3.0,89,0.00,,,0.04,51,HR-IXPWINDi_r2_v1.2.,2013-01-11 16:39:00,
2013-01-11 11:44:00,47.4,44.6,29.95,SE,129,0.0,4.0,90,0.00,,,0.04,58,HR-IXPWINDi_r2_v1.2.,2013-01-11 16:44:00,
2013-01-11 11:49:00,47.4,44.6,29.95,SE,129,0.0,4.0,90,0.00,,,0.04,77,HR-IXPWINDi_r2_v1.2.,2013-01-11 16:49:00,
2013-01-11 11:54:00,47.4,44.8,29.94,NE,44,0.0,2.0,91,0.04,,,0.05,49,HR-IXPWINDi_r2_v1.2.,2013-01-11 16:54:00,
2013-01-11 11:59:00,47.4,44.8,29.94,SSW,212,0.0,2.0,91,0.04,,,0.05,62,HR-IXPWINDi_r2_v1.2.,2013-01-11 16:59:00,
2013-01-11 12:05:00,47.3,44.7,29.95,WNW,295,1.0,4.0,91,0.04,,,0.05,26,HR-IXPWINDi_r2_v1.2.,2013-01-11 17:05:00,
2013-01-11 12:10:00,47.1,44.8,29.95,WNW,295,0.0,4.0,92,0.24,,,0.07,18,HR-IXPWINDi_r2_v1.2.,2013-01-11 17:10:00,
2013-01-11 12:15:00,47.0,44.7,29.95,WNW,295,0.0,3.0,92,0.28,,,0.11,21,HR-IXPWINDi_r2_v1.2.,2013-01-11 17:15:00,
2013-01-11 12:20:00,46.7,44.4,29.96,WNW,295,0.0,3.0,92,0.13,,,0.12,21,HR-IXPWINDi_r2_v1.2.,2013-01-11 17:20:00,
2013-01-11 12:25:00,46.5,44.5,29.96,WNW,295,0.0,1.0,93,0.06,,,0.12,37,HR-IXPWINDi_r2_v1.2.,2013-01-11 17:25:00,
2013-01-11 12:31:00,46.2,44.2,29.96,WNW,295,0.0,1.0,93,0.04,,,0.12,33,HR-IXPWINDi_r2_v1.2.,2013-01-11 17:31:00,
2013-01-11 12:36:00,46.2,44.2,29.96,WNW,295,0.0,1.0,93,0.00,,,0.12,79,HR-IXPWINDi_r2_v1.2.,2013-01-11 17:36:00,
2013-01-11 12:41:00,46.1,44.1,29.96,WNW,295,0.0,1.0,93,0.00,,,0.12,98,HR-IXPWINDi_r2_v1.2.,2013-01-11 17:41:00,
2013-01-11 12:46:00,46.2,44.5,29.96,WNW,295,0.0,1.0,94,0.00,,,0.12,172,HR-IXPWINDi_r2_v1.2.,2013-01-11 17:46:00,
2013-01-11 12:51:00,46.4,45.0,29.95,WNW,295,0.0,0.0,95,0.00,,,0.12,121,HR-IXPWINDi_r2_v1.2.,2013-01-11 17:51:00,
2013-01-11 12:56:00,46.8,45.4,29.95,WNW,295,0.0,0.0,95,0.00,,,0.12,120,HR-IXPWINDi_r2_v1.2.,2013-01-11 17:56:00,
2013-01-11 13:02:00,47.1,46.0,29.95,WNW,295,0.0,0.0,96,0.00,,,0.12,146,HR-IXPWINDi_r2_v1.2.,2013-01-11 18:02:00,
2013-01-11 13:07:00,47.3,46.2,29.95,WNW,295,0.0,0.0,96,0.00,,,0.12,105,HR-IXPWINDi_r2_v1.2.,2013-01-11 18:07:00,
2013-01-11 13:12:00,47.6,46.5,29.95,WNW,295,0.0,0.0,96,0.00,,,0.12,76,HR-IXPWINDi_r2_v1.2.,2013-01-11 18:12:00,
2013-01-11 13:17:00,47.9,46.8,29.95,WNW,295,0.0,0.0,96,0.00,,,0.12,42,HR-IXPWINDi_r2_v1.2.,2013-01-11 18:17:00,
2013-01-11 13:22:00,47.9,46.8,29.95,WNW,295,0.0,0.0,96,0.00,,,0.12,40,HR-IXPWINDi_r2_v1.2.,2013-01-11 18:22:00,
2013-01-11 13:28:00,48.0,47.1,29.95,WNW,295,0.0,0.0,97,0.00,,,0.12,26,HR-IXPWINDi_r2_v1.2.,2013-01-11 18:28:00,
2013-01-11 13:33:00,48.0,47.1,29.95,WNW,295,0.0,0.0,97,0.00,,,0.12,58,HR-IXPWINDi_r2_v1.2.,2013-01-11 18:33:00,
2013-01-11 13:38:00,47.9,47.0,29.95,WNW,295,0.0,0.0,97,0.00,,,0.12,91,HR-IXPWINDi_r2_v1.2.,2013-01-11 18:38:00,
2013-01-11 13:43:00,48.0,47.1,29.95,WNW,295,0.0,1.0,97,0.00,,,0.12,116,HR-IXPWINDi_r2_v1.2.,2013-01-11 18:43:00,
2013-01-11 13:48:00,48.2,47.3,29.95,WNW,295,0.0,1.0,97,0.00,,,0.12,54,HR-IXPWINDi_r2_v1.2.,2013-01-11 18:48:00,
2013-01-11 13:53:00,48.3,47.4,29.94,WNW,295,0.0,1.0,97,0.00,,,0.12,74,HR-IXPWINDi_r2_v1.2.,2013-01-11 18:53:00,
2013-01-11 13:58:00,48.3,47.4,29.94,WNW,295,0.0,1.0,97,0.00,,,0.12,33,HR-IXPWINDi_r2_v1.2.,2013-01-11 18:58:00,
2013-01-11 14:03:00,48.3,47.7,29.94,WNW,295,0.0,1.0,98,0.00,,,0.12,90,HR-IXPWINDi_r2_v1.2.,2013-01-11 19:03:00,
2013-01-11 14:09:00,48.5,47.9,29.94,WNW,295,0.0,1.0,98,0.00,,,0.12,104,HR-IXPWINDi_r2_v1.2.,2013-01-11 19:09:00,
2013-01-11 14:14:00,48.8,48.2,29.94,WNW,295,0.0,1.0,98,0.00,,,0.13,42,HR-IXPWINDi_r2_v1.2.,2013-01-11 19:14:00,
2013-01-11 14:19:00,49.1,48.8,29.94,SSE,148,3.0,5.0,99,0.10,,,0.14,32,HR-IXPWINDi_r2_v1.2.,2013-01-11 19:19:00,
2013-01-11 14:24:00,49.9,49.8,29.94,South,173,6.0,11.0,100,0.09,,,0.15,60,HR-IXPWINDi_r2_v1.2.,2013-01-11 19:24:00,
2013-01-11 14:30:00,51.4,51.3,29.94,South,186,5.0,11.0,100,0.15,,,0.16,84,HR-IXPWINDi_r2_v1.2.,2013-01-11 19:30:00,
2013-01-11 14:35:00,52.5,52.4,29.92,South,177,4.0,11.0,100,0.08,,,0.16,69,HR-IXPWINDi_r2_v1.2.,2013-01-11 19:35:00,
2013-01-11 14:40:00,53.2,53.1,29.92,South,176,4.0,11.0,100,0.05,,,0.16,63,HR-IXPWINDi_r2_v1.2.,2013-01-11 19:40:00,
2013-01-11 14:45:00,53.8,53.7,29.92,South,178,5.0,10.0,100,0.00,,,0.16,54,HR-IXPWINDi_r2_v1.2.,2013-01-11 19:45:00,
2013-01-11 14:51:00,54.1,54.0,29.92,SSE,162,3.0,10.0,100,0.00,,,0.16,86,HR-IXPWINDi_r2_v1.2.,2013-01-11 19:51:00,
2013-01-11 14:56:00,54.4,54.3,29.92,SSE,164,2.0,7.0,100,0.00,,,0.16,97,HR-IXPWINDi_r2_v1.2.,2013-01-11 19:56:00,
2013-01-11 15:01:00,54.5,54.4,29.92,SSE,160,3.0,7.0,100,0.00,,,0.16,62,HR-IXPWINDi_r2_v1.2.,2013-01-11 20:01:00,
2013-01-11 15:06:00,54.7,54.6,29.92,South,189,4.0,10.0,100,0.00,,,0.16,121,HR-IXPWINDi_r2_v1.2.,2013-01-11 20:06:00,
2013-01-11 15:11:00,54.7,54.6,29.92,SSW,203,0.0,10.0,100,0.00,,,0.16,33,HR-IXPWINDi_r2_v1.2.,2013-01-11 20:11:00,
2013-01-11 15:16:00,54.8,54.7,29.92,SSW,193,5.0,8.0,100,0.00,,,0.16,111,HR-IXPWINDi_r2_v1.2.,2013-01-11 20:16:00,
2013-01-11 15:22:00,55.0,54.9,29.91,SSE,156,5.0,11.0,100,0.00,,,0.16,60,HR-IXPWINDi_r2_v1.2.,2013-01-11 20:22:00,
2013-01-11 15:27:00,55.0,54.9,29.91,SSW,192,4.0,11.0,100,0.00,,,0.16,67,HR-IXPWINDi_r2_v1.2.,2013-01-11 20:27:00,
2013-01-11 15:32:00,55.1,55.0,29.91,SSW,199,6.0,10.0,100,0.00,,,0.16,63,HR-IXPWINDi_r2_v1.2.,2013-01-11 20:32:00,
2013-01-11 15:37:00,55.1,55.0,29.92,South,178,5.0,10.0,100,0.00,,,0.16,83,HR-IXPWINDi_r2_v1.2.,2013-01-11 20:37:00,
2013-01-11 15:42:00,55.1,55.0,29.92,SSW,203,4.0,13.0,100,0.00,,,0.16,70,HR-IXPWINDi_r2_v1.2.,2013-01-11 20:42:00,
2013-01-11 15:47:00,55.1,55.0,29.92,SSW,192,5.0,13.0,100,0.00,,,0.16,95,HR-IXPWINDi_r2_v1.2.,2013-01-11 20:47:00,
2013-01-11 15:53:00,55.3,55.2,29.92,South,170,4.0,9.0,100,0.00,,,0.16,37,HR-IXPWINDi_r2_v1.2.,2013-01-11 20:53:00,
2013-01-11 15:58:00,55.3,55.0,29.92,NW,310,10.0,10.0,99,0.00,,,0.16,5,HR-IXPWINDi_r2_v1.2.,2013-01-11 20:58:00,
2013-01-11 16:03:00,55.1,54.8,29.92,SSW,198,6.0,11.0,99,0.00,,,0.16,18,HR-IXPWINDi_r2_v1.2.,2013-01-11 21:03:00,
2013-01-11 16:09:00,55.0,54.7,29.93,South,191,10.0,21.0,99,0.00,,,0.16,16,HR-IXPWINDi_r2_v1.2.,2013-01-11 21:09:00,
2013-01-11 16:14:00,55.1,54.5,29.93,SSW,205,7.0,21.0,98,0.00,,,0.16,46,HR-IXPWINDi_r2_v1.2.,2013-01-11 21:14:00,
2013-01-11 16:19:00,55.3,54.7,29.93,SSW,210,4.0,16.0,98,0.00,,,0.16,44,HR-IXPWINDi_r2_v1.2.,2013-01-11 21:19:00,
2013-01-11 16:24:00,55.3,54.4,29.93,SSW,204,3.0,7.0,97,0.00,,,0.16,40,HR-IXPWINDi_r2_v1.2.,2013-01-11 21:24:00,
2013-01-11 16:29:00,55.4,54.5,29.93,South,191,4.0,8.0,97,0.00,,,0.16,39,HR-IXPWINDi_r2_v1.2.,2013-01-11 21:29:00,
2013-01-11 16:35:00,55.4,54.5,29.93,SSW,210,4.0,8.0,97,0.00,,,0.16,51,HR-IXPWINDi_r2_v1.2.,2013-01-11 21:35:00,
2013-01-11 16:40:00,55.6,54.7,29.93,South,176,1.0,6.0,97,0.00,,,0.16,19,HR-IXPWINDi_r2_v1.2.,2013-01-11 21:40:00,
2013-01-11 16:45:00,55.6,54.4,29.93,South,188,3.0,5.0,96,0.00,,,0.16,26,HR-IXPWINDi_r2_v1.2.,2013-01-11 21:45:00,
2013-01-11 16:50:00,55.4,54.2,29.93,South,189,3.0,4.0,96,0.00,,,0.16,21,HR-IXPWINDi_r2_v1.2.,2013-01-11 21:50:00,
2013-01-11 16:56:00,55.4,54.2,29.93,South,189,0.0,4.0,96,0.00,,,0.16,16,HR-IXPWINDi_r2_v1.2.,2013-01-11 21:56:00,
2013-01-11 17:01:00,55.4,54.2,29.93,SSW,201,0.0,4.0,96,0.00,,,0.16,11,HR-IXPWINDi_r2_v1.2.,2013-01-11 22:01:00,
2013-01-11 17:06:00,55.3,54.1,29.94,SSW,201,0.0,4.0,96,0.00,,,0.16,5,HR-IXPWINDi_r2_v1.2.,2013-01-11 22:06:00,
2013-01-11 17:11:00,55.1,53.6,29.94,SSW,201,0.0,1.0,95,0.00,,,0.16,0,HR-IXPWINDi_r2_v1.2.,2013-01-11 22:11:00,
2013-01-11 17:16:00,55.0,53.5,29.94,SSW,201,0.0,0.0,95,0.00,,,0.16,0,HR-IXPWINDi_r2_v1.2.,2013-01-11 22:16:00,
2013-01-11 17:21:00,54.8,53.3,29.93,SSW,201,0.0,0.0,95,0.00,,,0.16,0,HR-IXPWINDi_r2_v1.2.,2013-01-11 22:21:00,
2013-01-11 17:27:00,54.5,53.0,29.93,SSW,201,0.0,1.0,95,0.00,,,0.16,0,HR-IXPWINDi_r2_v1.2.,2013-01-11 22:27:00,
2013-01-11 17:32:00,54.2,52.4,29.93,SSW,201,0.0,1.0,94,0.00,,,0.16,0,HR-IXPWINDi_r2_v1.2.,2013-01-11 22:32:00,
2013-01-11 17:37:00,53.9,52.1,29.93,SSW,201,0.0,0.0,94,0.00,,,0.16,0,HR-IXPWINDi_r2_v1.2.,2013-01-11 22:37:00,
2013-01-11 17:42:00,53.5,51.7,29.93,SSW,201,0.0,0.0,94,0.00,,,0.16,0,HR-IXPWINDi_r2_v1.2.,2013-01-11 22:42:00,
2013-01-11 17:48:00,52.8,50.8,29.93,SSW,201,0.0,0.0,93,0.00,,,0.16,0,HR-IXPWINDi_r2_v1.2.,2013-01-11 22:48:00,
2013-01-11 17:53:00,52.2,49.9,29.95,SSW,201,0.0,0.0,92,0.00,,,0.16,0,HR-IXPWINDi_r2_v1.2.,2013-01-11 22:53:00,
2013-01-11 17:58:00,51.6,49.3,29.95,SSW,201,0.0,0.0,92,0.00,,,0.16,0,HR-IXPWINDi_r2_v1.2.,2013-01-11 22:58:00,
2013-01-11 18:03:00,51.3,49.3,29.95,SSW,201,0.0,0.0,93,0.00,,,0.16,0,HR-IXPWINDi_r2_v1.2.,2013-01-11 23:03:00,
2013-01-11 18:09:00,50.8,48.5,29.95,SSW,201,0.0,1.0,92,0.00,,,0.16,0,HR-IXPWINDi_r2_v1.2.,2013-01-11 23:09:00,
2013-01-11 18:14:00,50.4,48.1,29.95,SSW,201,0.0,1.0,92,0.00,,,0.16,0,HR-IXPWINDi_r2_v1.2.,2013-01-11 23:14:00,
2013-01-11 18:19:00,49.8,47.5,29.95,SSW,201,0.0,1.0,92,0.00,,,0.16,0,HR-IXPWINDi_r2_v1.2.,2013-01-11 23:19:00,
2013-01-11 18:24:00,49.2,46.9,29.95,SSW,201,0.0,1.0,92,0.00,,,0.16,0,HR-IXPWINDi_r2_v1.2.,2013-01-11 23:24:00,
2013-01-11 18:29:00,48.8,46.5,29.95,SSW,201,0.0,0.0,92,0.00,,,0.16,0,HR-IXPWINDi_r2_v1.2.,2013-01-11 23:29:00,
2013-01-11 18:35:00,48.0,45.7,29.96,SSW,201,0.0,1.0,92,0.00,,,0.16,0,HR-IXPWINDi_r2_v1.2.,2013-01-11 23:35:00,
2013-01-11 18:40:00,47.6,45.6,29.96,SSW,201,0.0,1.0,93,0.00,,,0.16,0,HR-IXPWINDi_r2_v1.2.,2013-01-11 23:40:00,
2013-01-11 18:45:00,47.3,45.3,29.96,SSW,201,0.0,1.0,93,0.00,,,0.16,0,HR-IXPWINDi_r2_v1.2.,2013-01-11 23:45:00,
2013-01-11 18:50:00,46.7,44.7,29.97,SSW,201,0.0,1.0,93,0.00,,,0.16,0,HR-IXPWINDi_r2_v1.2.,2013-01-11 23:50:00,
2013-01-11 18:55:00,46.2,43.9,29.97,SSW,201,0.0,0.0,92,0.00,,,0.16,0,HR-IXPWINDi_r2_v1.2.,2013-01-11 23:55:00,
2013-01-11 19:00:00,45.7,43.5,29.97,SSW,201,0.0,0.0,92,0.00,,,0.16,0,HR-IXPWINDi_r2_v1.2.,2013-01-12 00:00:00,
2013-01-11 19:06:00,45.1,42.9,29.97,SSW,201,0.0,0.0,92,0.00,,,0.16,0,HR-IXPWINDi_r2_v1.2.,2013-01-12 00:06:00,
2013-01-11 19:11:00,44.8,42.8,29.97,SSW,201,0.0,0.0,93,0.00,,,0.16,0,HR-IXPWINDi_r2_v1.2.,2013-01-12 00:11:00,
2013-01-11 19:16:00,44.6,42.6,29.97,SSW,201,0.0,0.0,93,0.00,,,0.16,0,HR-IXPWINDi_r2_v1.2.,2013-01-12 00:16:00,
2013-01-11 19:21:00,44.6,42.9,29.97,SSW,201,0.0,1.0,94,0.00,,,0.16,0,HR-IXPWINDi_r2_v1.2.,2013-01-12 00:21:00,
2013-01-11 19:26:00,44.5,42.8,29.97,SSW,201,0.0,1.0,94,0.00,,,0.16,0,HR-IXPWINDi_r2_v1.2.,2013-01-12 00:26:00,
2013-01-11 19:32:00,43.9,42.0,29.97,SSW,201,0.0,1.0,93,0.00,,,0.16,0,HR-IXPWINDi_r2_v1.2.,2013-01-12 00:32:00,
2013-01-11 19:37:00,43.5,41.6,29.98,SSW,201,0.0,0.0,93,0.00,,,0.16,0,HR-IXPWINDi_r2_v1.2.,2013-01-12 00:37:00,
2013-01-11 19:42:00,43.2,41.5,29.98,SSW,201,0.0,0.0,94,0.00,,,0.16,0,HR-IXPWINDi_r2_v1.2.,2013-01-12 00:42:00,
2013-01-11 19:47:00,43.1,41.7,29.98,SSW,201,0.0,1.0,95,0.00,,,0.16,0,HR-IXPWINDi_r2_v1.2.,2013-01-12 00:47:00,
2013-01-11 19:52:00,42.9,41.5,29.97,SSW,201,0.0,1.0,95,0.00,,,0.16,0,HR-IXPWINDi_r2_v1.2.,2013-01-12 00:52:00,
2013-01-11 19:57:00,42.9,41.5,29.97,SSW,201,0.0,0.0,95,0.00,,,0.16,0,HR-IXPWINDi_r2_v1.2.,2013-01-12 00:57:00,
2013-01-11 20:02:00,42.8,41.4,29.97,SSW,201,0.0,0.0,95,0.00,,,0.16,0,HR-IXPWINDi_r2_v1.2.,2013-01-12 01:02:00,
2013-01-11 20:08:00,42.6,41.2,29.97,SSW,201,0.0,0.0,95,0.00,,,0.16,0,HR-IXPWINDi_r2_v1.2.,2013-01-12 01:08:00,
2013-01-11 20:13:00,42.5,41.1,29.97,SSW,201,0.0,0.0,95,0.00,,,0.16,0,HR-IXPWINDi_r2_v1.2.,2013-01-12 01:13:00,
2013-01-11 20:18:00,42.3,41.2,29.97,SSW,201,0.0,0.0,96,0.00,,,0.16,0,HR-IXPWINDi_r2_v1.2.,2013-01-12 01:18:00,
2013-01-11 20:23:00,42.1,41.0,29.97,SSW,201,0.0,0.0,96,0.00,,,0.16,0,HR-IXPWINDi_r2_v1.2.,2013-01-12 01:23:00,
2013-01-11 20:29:00,41.9,40.8,29.97,SSW,201,0.0,0.0,96,0.00,,,0.16,0,HR-IXPWINDi_r2_v1.2.,2013-01-12 01:29:00,
2013-01-11 20:34:00,41.6,40.5,29.97,SSW,201,0.0,1.0,96,0.00,,,0.16,0,HR-IXPWINDi_r2_v1.2.,2013-01-12 01:34:00,
2013-01-11 20:39:00,41.5,40.4,29.98,SSW,201,0.0,1.0,96,0.00,,,0.16,0,HR-IXPWINDi_r2_v1.2.,2013-01-12 01:39:00,
2013-01-11 20:44:00,41.2,40.1,29.98,SSW,201,0.0,0.0,96,0.00,,,0.16,0,HR-IXPWINDi_r2_v1.2.,2013-01-12 01:44:00,
2013-01-11 20:49:00,41.1,40.0,29.98,SSW,201,0.0,0.0,96,0.00,,,0.16,0,HR-IXPWINDi_r2_v1.2.,2013-01-12 01:49:00,
2013-01-11 20:54:00,40.9,39.8,29.98,SSW,201,0.0,0.0,96,0.00,,,0.16,0,HR-IXPWINDi_r2_v1.2.,2013-01-12 01:54:00,
2013-01-11 21:00:00,40.8,39.7,29.98,SSW,201,0.0,0.0,96,0.00,,,0.16,0,HR-IXPWINDi_r2_v1.2.,2013-01-12 02:00:00,
2013-01-11 21:05:00,40.5,39.4,29.98,SSW,201,0.0,0.0,96,0.00,,,0.16,0,HR-IXPWINDi_r2_v1.2.,2013-01-12 02:05:00,
2013-01-11 21:10:00,40.3,39.2,29.98,SSW,201,0.0,0.0,96,0.00,,,0.16,0,HR-IXPWINDi_r2_v1.2.,2013-01-12 02:10:00,
2013-01-11 21:15:00,40.3,39.2,29.98,SSW,201,0.0,0.0,96,0.00,,,0.16,0,HR-IXPWINDi_r2_v1.2.,2013-01-12 02:15:00,
2013-01-11 21:21:00,40.2,39.4,29.98,SSW,201,0.0,0.0,97,0.00,,,0.16,0,HR-IXPWINDi_r2_v1.2.,2013-01-12 02:21:00,
2013-01-11 21:26:00,40.1,39.0,29.98,SSW,201,0.0,0.0,96,0.00,,,0.16,0,HR-IXPWINDi_r2_v1.2.,2013-01-12 02:26:00,
2013-01-11 21:31:00,39.9,38.8,29.98,SSW,201,0.0,0.0,96,0.00,,,0.16,0,HR-IXPWINDi_r2_v1.2.,2013-01-12 02:31:00,
2013-01-11 21:36:00,39.8,38.7,29.99,SSW,201,0.0,0.0,96,0.00,,,0.16,0,HR-IXPWINDi_r2_v1.2.,2013-01-12 02:36:00,
2013-01-11 21:42:00,39.5,38.4,29.99,SSW,201,0.0,0.0,96,0.00,,,0.16,0,HR-IXPWINDi_r2_v1.2.,2013-01-12 02:42:00,
2013-01-11 21:47:00,39.3,38.5,29.99,SSW,201,0.0,0.0,97,0.00,,,0.16,0,HR-IXPWINDi_r2_v1.2.,2013-01-12 02:47:00,
2013-01-11 21:52:00,39.3,38.5,29.99,SSW,201,0.0,0.0,97,0.00,,,0.16,0,HR-IXPWINDi_r2_v1.2.,2013-01-12 02:52:00,
2013-01-11 21:58:00,39.2,38.4,29.99,SSW,201,0.0,0.0,97,0.00,,,0.16,0,HR-IXPWINDi_r2_v1.2.,2013-01-12 02:58:00,
2013-01-11 22:03:00,39.1,38.3,29.99,SSW,201,0.0,0.0,97,0.00,,,0.16,0,HR-IXPWINDi_r2_v1.2.,2013-01-12 03:03:00,
2013-01-11 22:08:00,39.1,38.3,29.99,SSW,201,0.0,0.0,97,0.00,,,0.16,0,HR-IXPWINDi_r2_v1.2.,2013-01-12 03:08:00,
2013-01-11 22:13:00,39.1,38.3,29.99,SSW,201,0.0,0.0,97,0.00,,,0.16,0,HR-IXPWINDi_r2_v1.2.,2013-01-12 03:13:00,
2013-01-11 22:18:00,39.1,38.5,29.99,SSW,201,0.0,0.0,98,0.00,,,0.16,0,HR-IXPWINDi_r2_v1.2.,2013-01-12 03:18:00,
2013-01-11 22:23:00,39.3,38.7,29.99,SSW,201,0.0,0.0,98,0.00,,,0.16,0,HR-IXPWINDi_r2_v1.2.,2013-01-12 03:23:00,
2013-01-11 22:29:00,39.3,38.7,29.99,SSW,201,0.0,0.0,98,0.00,,,0.16,0,HR-IXPWINDi_r2_v1.2.,2013-01-12 03:29:00,
2013-01-11 22:34:00,39.3,38.7,29.99,SSW,201,0.0,0.0,98,0.00,,,0.16,0,HR-IXPWINDi_r2_v1.2.,2013-01-12 03:34:00,
2013-01-11 22:39:00,39.5,38.9,29.99,SSW,201,0.0,0.0,98,0.00,,,0.16,0,HR-IXPWINDi_r2_v1.2.,2013-01-12 03:39:00,
2013-01-11 22:44:00,39.3,38.7,29.99,SSW,201,0.0,0.0,98,0.00,,,0.16,0,HR-IXPWINDi_r2_v1.2.,2013-01-12 03:44:00,
2013-01-11 22:49:00,39.3,38.7,29.99,SSW,201,0.0,0.0,98,0.00,,,0.16,0,HR-IXPWINDi_r2_v1.2.,2013-01-12 03:49:00,
2013-01-11 22:54:00,39.3,38.7,29.99,SSW,201,0.0,0.0,98,0.00,,,0.16,0,HR-IXPWINDi_r2_v1.2.,2013-01-12 03:54:00,
2013-01-11 22:59:00,39.3,38.7,29.99,SSW,201,0.0,0.0,98,0.00,,,0.16,0,HR-IXPWINDi_r2_v1.2.,2013-01-12 03:59:00,
2013-01-11 23:04:00,39.3,38.7,29.99,SSW,201,0.0,1.0,98,0.00,,,0.16,0,HR-IXPWINDi_r2_v1.2.,2013-01-12 04:04:00,
2013-01-11 23:10:00,39.3,38.7,29.98,SSW,201,0.0,1.0,98,0.00,,,0.16,0,HR-IXPWINDi_r2_v1.2.,2013-01-12 04:10:00,
2013-01-11 23:15:00,39.3,38.7,29.98,SSW,201,0.0,0.0,98,0.00,,,0.16,0,HR-IXPWINDi_r2_v1.2.,2013-01-12 04:15:00,
2013-01-11 23:20:00,39.3,38.7,29.98,SSW,201,0.0,0.0,98,0.00,,,0.16,0,HR-IXPWINDi_r2_v1.2.,2013-01-12 04:20:00,
2013-01-11 23:25:00,39.2,38.6,29.98,SSW,201,0.0,1.0,98,0.00,,,0.16,0,HR-IXPWINDi_r2_v1.2.,2013-01-12 04:25:00,
2013-01-11 23:31:00,39.1,38.5,29.98,SSW,201,0.0,1.0,98,0.00,,,0.16,0,HR-IXPWINDi_r2_v1.2.,2013-01-12 04:31:00,
2013-01-11 23:36:00,39.1,38.5,29.98,SSW,201,0.0,0.0,98,0.00,,,0.16,0,HR-IXPWINDi_r2_v1.2.,2013-01-12 04:36:00,
2013-01-11 23:41:00,39.1,38.8,29.98,SSW,201,0.0,0.0,99,0.00,,,0.16,0,HR-IXPWINDi_r2_v1.2.,2013-01-12 04:41:00,
2013-01-11 23:46:00,39.1,38.8,29.98,SSW,201,0.0,0.0,99,0.00,,,0.16,0,HR-IXPWINDi_r2_v1.2.,2013-01-12 04:46:00,
2013-01-11 23:52:00,39.2,38.9,29.98,SSW,201,0.0,0.0,99,0.00,,,0.16,0,HR-IXPWINDi_r2_v1.2.,2013-01-12 04:52:00,
2013-01-11 23:57:00,39.3,39.0,29.98,SSW,201,0.0,0.0,99,0.00,,,0.16,0,HR-IXPWINDi_r2_v1.2.,2013-01-12 04:57:00,